createdAt,value
2018-09-04T00:01:58.265Z,100016.59
2018-09-04T00:04:27.974Z,100012.00
2018-09-04T00:06:57.671Z,100015.06
2018-09-04T00:09:27.392Z,100013.34
2018-09-04T00:11:57.096Z,100017.52
2018-09-04T00:14:26.844Z,100021.77
2018-09-04T00:16:56.749Z,100018.59
2018-09-04T00:19:26.452Z,100014.95
2018-09-04T00:21:56.196Z,100016.89
2018-09-04T00:24:25.880Z,100027.27
2018-09-04T00:26:55.564Z,100016.63
2018-09-04T00:29:25.281Z,100018.35
2018-09-04T00:31:55.012Z,100013.97
2018-09-04T00:34:24.797Z,100020.80
2018-09-04T00:36:54.637Z,100018.36
2018-09-04T00:39:24.328Z,100012.17
2018-09-04T00:41:54.084Z,100023.42
2018-09-04T00:44:23.753Z,100023.97
2018-09-04T00:46:53.437Z,100019.17
2018-09-04T00:49:23.160Z,100023.06
2018-09-04T00:51:52.852Z,100024.61
2018-09-04T00:54:22.528Z,100016.55
2018-09-04T00:56:52.284Z,100014.20
2018-09-04T00:59:21.964Z,100018.86
2018-09-04T01:01:51.628Z,100020.31
2018-09-04T01:04:21.432Z,100018.13
2018-09-04T01:06:51.119Z,100018.27
2018-09-04T01:09:22.516Z,100018.12
2018-09-04T01:11:52.711Z,100023.12
2018-09-04T01:14:22.432Z,100020.98
2018-09-04T01:16:52.136Z,100022.56
2018-09-04T01:19:21.836Z,100029.39
2018-09-04T01:21:51.551Z,100029.39
2018-09-04T01:24:21.344Z,100024.52
2018-09-04T01:26:51.073Z,100024.77
2018-09-04T01:29:20.824Z,100020.59
2018-09-04T01:31:50.556Z,100019.47
2018-09-04T01:34:20.273Z,100014.34
2018-09-04T01:36:49.940Z,100017.76
2018-09-04T01:39:19.644Z,100014.55
2018-09-04T01:41:49.353Z,100016.89
2018-09-04T01:44:19.008Z,100018.35
2018-09-04T01:46:48.688Z,100022.61
2018-09-04T01:49:18.421Z,100017.91
2018-09-04T01:51:48.120Z,100019.24
2018-09-04T01:54:17.816Z,100022.83
2018-09-04T01:56:47.531Z,100017.64
2018-09-04T01:59:17.201Z,100026.24
2018-09-04T02:01:46.957Z,100022.91
2018-09-04T02:04:16.660Z,100026.22
2018-09-04T02:06:46.348Z,100019.77
2018-09-04T02:09:16.155Z,100026.44
2018-09-04T02:11:45.830Z,100019.34
2018-09-04T02:14:15.520Z,100014.85
2018-09-04T02:16:45.243Z,100023.09
2018-09-04T02:19:14.976Z,100017.59
2018-09-04T02:21:44.636Z,100021.34
2018-09-04T02:24:14.364Z,100021.02
2018-09-04T02:26:44.048Z,100019.16
2018-09-04T02:29:13.715Z,100020.32
2018-09-04T02:31:43.445Z,100021.25
2018-09-04T02:34:13.141Z,100024.99
2018-09-04T02:36:42.833Z,100021.47
2018-09-04T02:39:13.236Z,100025.31
2018-09-04T02:41:42.961Z,100020.11
2018-09-04T02:44:12.705Z,100018.64
2018-09-04T02:46:42.440Z,100015.83
2018-09-04T02:49:12.141Z,100021.86
2018-09-04T02:51:41.860Z,100021.75
2018-09-04T02:54:11.645Z,100022.06
2018-09-04T02:56:41.322Z,100017.78
2018-09-04T02:59:11.009Z,100019.94
2018-09-04T03:01:40.772Z,100021.52
2018-09-04T03:04:10.468Z,100011.78
2018-09-04T03:06:40.175Z,100014.11
2018-09-04T03:09:09.840Z,100022.27
2018-09-04T03:11:39.501Z,100014.81
2018-09-04T03:14:09.224Z,100020.22
2018-09-04T03:16:38.940Z,100024.27
2018-09-04T03:19:08.633Z,100022.74
2018-09-04T03:21:38.372Z,100025.86
2018-09-04T03:24:08.140Z,100017.57
2018-09-04T03:26:37.908Z,100023.85
2018-09-04T03:29:07.756Z,100011.89
2018-09-04T03:31:37.507Z,100017.19
2018-09-04T03:34:07.220Z,100011.22
2018-09-04T03:36:36.985Z,100017.19
2018-09-04T03:39:08.457Z,100009.69
2018-09-04T03:41:38.195Z,100010.81
2018-09-04T03:44:07.900Z,100019.77
2018-09-04T03:46:37.620Z,100018.86
2018-09-04T03:49:07.315Z,100021.47
2018-09-04T03:51:36.992Z,100028.32
2018-09-04T03:54:06.795Z,100027.53
2018-09-04T03:56:36.472Z,100031.08
2018-09-04T03:59:06.205Z,100029.84
2018-09-04T04:01:35.945Z,100029.33
2018-09-04T04:04:05.645Z,100033.97
2018-09-04T04:06:36.287Z,100035.29
2018-09-04T04:09:08.449Z,100031.77
2018-09-04T04:11:38.145Z,100035.08
2018-09-04T04:14:08.359Z,100046.56
2018-09-04T04:16:38.055Z,100043.39
2018-09-04T04:19:07.777Z,100041.30
2018-09-04T04:21:37.460Z,100041.98
2018-09-04T04:24:07.173Z,100040.71
2018-09-04T04:26:36.871Z,100042.97
2018-09-04T04:29:06.791Z,100038.34
2018-09-04T04:31:36.528Z,100040.51
2018-09-04T04:34:06.269Z,100041.30
2018-09-04T04:36:36.046Z,100041.05
2018-09-04T04:39:08.049Z,100043.72
2018-09-04T04:41:37.726Z,100048.13
2018-09-04T04:44:07.680Z,100046.34
2018-09-04T04:46:38.089Z,100046.34
2018-09-04T04:49:08.233Z,100051.42
2018-09-04T04:51:37.917Z,100046.38
2018-09-04T04:54:07.631Z,100051.41
2018-09-04T04:56:37.317Z,100053.10
2018-09-04T04:59:07.004Z,100054.83
2018-09-04T05:01:36.781Z,100053.66
2018-09-04T05:04:06.935Z,100054.25
2018-09-04T05:06:36.664Z,100057.41
2018-09-04T05:09:08.733Z,100057.28
2018-09-04T05:11:38.551Z,100054.18
2018-09-04T05:14:08.468Z,100055.93
2018-09-04T05:16:38.151Z,100056.41
2018-09-04T05:19:07.856Z,100051.53
2018-09-04T05:21:37.564Z,100048.73
2018-09-04T05:24:07.272Z,100052.92
2018-09-04T05:26:36.996Z,100059.09
2018-09-04T05:29:06.688Z,100057.05
2018-09-04T05:31:41.661Z,100069.12
2018-09-04T05:34:11.442Z,100068.99
2018-09-04T05:36:41.285Z,100063.13
2018-09-04T05:39:11.251Z,100064.59
2018-09-04T05:41:40.941Z,100062.48
2018-09-04T05:44:10.758Z,100069.50
2018-09-04T05:46:42.949Z,100060.27
2018-09-04T05:49:14.260Z,100055.53
2018-09-04T05:51:43.947Z,100057.87
2018-09-04T05:54:13.724Z,100055.55
2018-09-04T05:56:43.408Z,100051.60
2018-09-04T05:59:13.136Z,100052.79
2018-09-04T06:01:42.825Z,100058.06
2018-09-04T06:04:12.554Z,100059.14
2018-09-04T06:06:48.560Z,100057.56
2018-09-04T06:09:18.324Z,100058.14
2018-09-04T06:11:48.001Z,100058.11
2018-09-04T06:14:17.712Z,100063.23
2018-09-04T06:16:47.436Z,100059.45
2018-09-04T06:19:17.140Z,100063.11
2018-09-04T06:21:46.877Z,100061.47
2018-09-04T06:24:16.569Z,100062.44
2018-09-04T06:26:46.384Z,100062.53
2018-09-04T06:29:16.064Z,100061.25
2018-09-04T06:31:45.808Z,100066.70
2018-09-04T06:34:15.750Z,100065.72
2018-09-04T06:36:45.747Z,100067.53
2018-09-04T06:39:15.411Z,100069.73
2018-09-04T06:41:45.232Z,100064.69
2018-09-04T06:44:14.964Z,100068.61
2018-09-04T06:46:44.652Z,100064.66
2018-09-04T06:49:14.373Z,100072.91
2018-09-04T06:51:44.068Z,100065.49
2018-09-04T06:54:13.796Z,100071.55
2018-09-04T06:56:43.532Z,100068.73
2018-09-04T06:59:13.238Z,100063.64
2018-09-04T07:01:42.936Z,100066.97
2018-09-04T07:04:12.680Z,100067.60
2018-09-04T07:06:42.393Z,100071.88
2018-09-04T07:09:13.892Z,100078.84
2018-09-04T07:11:44.504Z,100079.90
2018-09-04T07:14:14.251Z,100081.42
2018-09-04T07:16:43.952Z,100089.66
2018-09-04T07:19:18.726Z,100089.52
2018-09-04T07:21:48.497Z,100093.45
2018-09-04T07:24:18.314Z,100095.50
2018-09-04T07:26:48.100Z,100089.12
2018-09-04T07:29:24.230Z,100092.03
2018-09-04T07:31:53.972Z,100092.17
2018-09-04T07:34:23.683Z,100091.48
2018-09-04T07:36:53.404Z,100092.20
2018-09-04T07:39:23.075Z,100096.05
2018-09-04T07:41:52.762Z,100091.06
2018-09-04T07:44:22.495Z,100093.08
2018-09-04T07:46:52.230Z,100087.22
2018-09-04T07:49:21.939Z,100078.75
2018-09-04T07:51:51.645Z,100083.77
2018-09-04T07:54:21.392Z,100083.34
2018-09-04T07:56:51.538Z,100096.03
2018-09-04T07:59:21.256Z,100085.70
2018-09-04T08:01:50.989Z,100084.94
2018-09-04T08:04:20.960Z,100083.37
2018-09-04T08:06:50.737Z,100085.44
2018-09-04T08:09:20.422Z,100086.67
2018-09-04T08:11:50.171Z,100085.24
2018-09-04T08:14:19.893Z,100093.56
2018-09-04T08:16:49.665Z,100095.27
2018-09-04T08:19:19.455Z,100093.73
2018-09-04T08:21:49.196Z,100096.05
2018-09-04T08:24:18.868Z,100094.80
2018-09-04T08:26:48.550Z,100087.14
2018-09-04T08:29:18.271Z,100094.74
2018-09-04T08:31:47.968Z,100093.86
2018-09-04T08:34:17.669Z,100087.99
2018-09-04T08:36:47.420Z,100090.30
2018-09-04T08:39:17.120Z,100083.91
2018-09-04T08:41:46.940Z,100079.25
2018-09-04T08:44:16.673Z,100081.86
2018-09-04T08:46:46.452Z,100079.28
2018-09-04T08:49:16.173Z,100080.87
2018-09-04T08:51:45.872Z,100080.78
2018-09-04T08:54:15.593Z,100076.00
2018-09-04T08:56:45.375Z,100084.84
2018-09-04T08:59:15.100Z,100082.13
2018-09-04T09:01:44.813Z,100083.86
2018-09-04T09:04:14.536Z,100074.66
2018-09-04T09:06:44.253Z,100077.53
2018-09-04T09:09:13.944Z,100083.56
2018-09-04T09:11:43.659Z,100075.25
2018-09-04T09:14:13.428Z,100072.66
2018-09-04T09:16:43.175Z,100072.53
2018-09-04T09:19:12.860Z,100066.55
2018-09-04T09:21:42.555Z,100069.47
2018-09-04T09:24:12.294Z,100062.45
2018-09-04T09:26:42.242Z,100066.77
2018-09-04T09:29:11.955Z,100063.81
2018-09-04T09:31:41.707Z,100064.95
2018-09-04T09:34:11.448Z,100068.97
2018-09-04T09:36:41.431Z,100062.09
2018-09-04T09:39:11.392Z,100064.42
2018-09-04T09:41:41.127Z,100054.44
2018-09-04T09:44:10.845Z,100053.41
2018-09-04T09:46:40.520Z,100060.91
2018-09-04T09:49:10.244Z,100059.97
2018-09-04T09:51:39.933Z,100064.25
2018-09-04T09:54:09.604Z,100055.19
2018-09-04T09:56:39.355Z,100064.38
2018-09-04T09:59:09.105Z,100059.59
2018-09-04T10:01:43.841Z,100056.97
2018-09-04T10:04:13.646Z,100061.08
2018-09-04T10:06:43.337Z,100056.12
2018-09-04T10:09:13.012Z,100052.70
2018-09-04T10:11:42.768Z,100053.14
2018-09-04T10:14:12.567Z,100051.53
2018-09-04T10:16:42.268Z,100054.85
2018-09-04T10:19:11.999Z,100050.58
2018-09-04T10:21:41.700Z,100052.06
2018-09-04T10:24:11.414Z,100049.67
2018-09-04T10:26:41.213Z,100050.31
2018-09-04T10:29:10.963Z,100056.06
2018-09-04T10:31:40.672Z,100042.86
2018-09-04T10:34:10.522Z,100035.50
2018-09-04T10:36:40.294Z,100030.96
2018-09-04T10:39:15.338Z,100034.86
2018-09-04T10:41:45.044Z,100030.19
2018-09-04T10:44:14.730Z,100030.28
2018-09-04T10:46:44.460Z,100026.71
2018-09-04T10:49:14.145Z,100019.59
2018-09-04T10:51:43.880Z,100022.16
2018-09-04T10:54:13.652Z,100020.71
2018-09-04T10:56:43.429Z,100014.72
2018-09-04T10:59:13.104Z,100017.49
2018-09-04T11:01:42.844Z,100011.45
2018-09-04T11:04:12.588Z,100012.85
2018-09-04T11:06:42.293Z,100010.72
2018-09-04T11:09:12.296Z,100007.73
2018-09-04T11:11:42.891Z,100006.40
2018-09-04T11:14:12.565Z,100012.16
2018-09-04T11:16:42.271Z,100009.13
2018-09-04T11:19:11.955Z,100008.83
2018-09-04T11:21:41.644Z,100005.84
2018-09-04T11:24:11.337Z,100000.64
2018-09-04T11:26:41.013Z,100001.20
2018-09-04T11:29:12.314Z,100001.45
2018-09-04T11:31:42.076Z,100003.36
2018-09-04T11:34:11.742Z,100007.78
2018-09-04T11:36:41.489Z,100003.97
2018-09-04T11:39:11.762Z,100005.36
2018-09-04T11:41:41.500Z,99999.34
2018-09-04T11:44:11.154Z,99997.67
2018-09-04T11:46:40.856Z,99999.39
2018-09-04T11:49:10.561Z,100002.13
2018-09-04T11:51:40.243Z,100007.06
2018-09-04T11:54:09.963Z,100004.06
2018-09-04T11:56:40.860Z,100005.16
2018-09-04T11:59:10.661Z,100006.78
2018-09-04T12:01:43.740Z,100007.88
2018-09-04T12:04:13.442Z,100002.66
2018-09-04T12:06:43.190Z,100003.50
2018-09-04T12:09:12.831Z,99998.52
2018-09-04T12:11:47.013Z,100000.19
2018-09-04T12:14:16.691Z,99998.81
2018-09-04T12:16:46.956Z,99998.81
2018-09-04T12:19:16.722Z,99998.80
2018-09-04T12:21:46.408Z,99996.88
2018-09-04T12:24:16.169Z,99996.00
2018-09-04T12:26:45.855Z,99992.42
2018-09-04T12:29:15.550Z,99994.61
2018-09-04T12:31:45.296Z,99991.86
2018-09-04T12:34:15.072Z,99989.38
2018-09-04T12:36:44.764Z,99993.98
2018-09-04T12:39:14.453Z,99993.50
2018-09-04T12:41:44.244Z,99990.80
2018-09-04T12:44:13.919Z,99989.95
2018-09-04T12:46:43.636Z,99988.80
2018-09-04T12:49:13.326Z,99986.30
2018-09-04T12:51:43.039Z,99992.08
2018-09-04T12:54:12.708Z,99992.84
2018-09-04T12:56:42.411Z,99992.56
2018-09-04T12:59:12.117Z,99993.63
2018-09-04T13:01:41.804Z,99992.42
2018-09-04T13:04:11.459Z,99991.74
2018-09-04T13:06:41.163Z,99989.83
2018-09-04T13:09:10.909Z,99980.97
2018-09-04T13:11:40.580Z,99990.64
2018-09-04T13:14:10.324Z,99989.59
2018-09-04T13:16:40.000Z,99986.73
2018-09-04T13:19:09.736Z,99989.95
2018-09-04T13:21:39.530Z,99980.33
2018-09-04T13:24:09.200Z,99986.05
2018-09-04T13:26:38.856Z,99987.34
2018-09-04T13:29:08.577Z,99996.72
2018-09-04T13:31:38.240Z,99984.20
2018-09-04T13:34:07.944Z,99983.29
2018-09-04T13:36:37.871Z,99977.91
2018-09-04T13:39:07.532Z,99972.67
2018-09-04T13:41:37.224Z,99975.34
2018-09-04T13:44:06.947Z,99972.33
2018-09-04T13:46:36.613Z,99980.79
2018-09-04T13:49:07.032Z,99979.14
2018-09-04T13:51:37.193Z,99973.62
2018-09-04T13:54:06.904Z,99977.48
2018-09-04T13:56:36.655Z,99976.95
2018-09-04T13:59:06.364Z,99974.05
2018-09-04T14:01:36.089Z,99975.80
2018-09-04T14:04:05.817Z,99972.27
2018-09-04T14:06:35.521Z,99971.77
2018-09-04T14:09:06.523Z,99972.90
2018-09-04T14:11:36.219Z,99969.25
2018-09-04T14:14:05.948Z,99968.61
2018-09-04T14:16:43.149Z,99974.50
2018-09-04T14:19:05.504Z,99972.90
2018-09-04T14:21:35.200Z,99974.35
2018-09-04T14:24:04.912Z,99973.27
2018-09-04T14:26:34.620Z,99975.83
2018-09-04T14:29:07.362Z,99970.84
2018-09-04T14:31:34.054Z,99968.39
2018-09-04T14:34:03.713Z,99966.19
2018-09-04T14:36:33.451Z,99965.14
2018-09-04T14:39:03.225Z,99967.77
2018-09-04T14:41:33.096Z,99971.98
2018-09-04T14:44:02.759Z,99966.80
2018-09-04T14:46:32.500Z,99970.16
2018-09-04T14:49:02.556Z,99961.39
2018-09-04T14:51:32.243Z,99965.52
2018-09-04T14:54:02.138Z,99967.17
2018-09-04T14:56:31.821Z,99973.80
2018-09-04T14:59:01.506Z,99971.88
2018-09-04T15:01:31.212Z,99978.47
2018-09-04T15:04:00.934Z,99976.84
2018-09-04T15:06:30.695Z,99972.43
2018-09-04T15:09:00.397Z,99976.27
2018-09-04T15:11:30.145Z,99978.17
2018-09-04T15:13:59.806Z,99980.63
2018-09-04T15:16:29.484Z,99977.05
2018-09-04T15:18:59.214Z,99979.79
2018-09-04T15:21:28.916Z,99978.97
2018-09-04T15:23:58.576Z,99975.94
2018-09-04T15:26:28.302Z,99975.38
2018-09-04T15:28:57.980Z,99975.38
2018-09-04T15:31:27.667Z,99974.28
2018-09-04T15:33:57.365Z,99974.02
2018-09-04T15:36:27.040Z,99979.77
2018-09-04T15:38:56.799Z,99973.14
2018-09-04T15:41:26.492Z,99971.23
2018-09-04T15:43:56.212Z,99975.35
2018-09-04T15:46:25.890Z,99974.77
2018-09-04T15:50:02.679Z,99981.34
2018-09-04T15:52:32.336Z,99982.39
2018-09-04T15:55:01.998Z,99981.58
2018-09-04T15:57:31.709Z,99984.28
2018-09-04T16:00:01.372Z,99983.16
2018-09-04T16:02:31.028Z,99983.69
2018-09-04T16:05:00.704Z,99986.44
2018-09-04T16:07:30.369Z,99988.91
2018-09-04T16:10:00.129Z,99980.61
2018-09-04T16:12:29.812Z,99978.66
2018-09-04T16:14:59.501Z,99979.75
2018-09-04T16:17:29.244Z,99975.63
2018-09-04T16:19:58.961Z,99981.33
2018-09-04T16:22:29.037Z,99981.34
2018-09-04T16:24:58.780Z,99975.00
2018-09-04T16:27:28.444Z,99977.73
2018-09-04T16:29:58.164Z,99981.05
2018-09-04T16:32:27.840Z,99973.55
2018-09-04T16:34:57.525Z,99982.05
2018-09-04T16:37:27.404Z,99979.29
2018-09-04T16:39:57.146Z,99984.47
2018-09-04T16:42:26.817Z,99981.94
2018-09-04T16:44:56.519Z,99980.61
2018-09-04T16:47:26.196Z,99981.13
2018-09-04T16:49:55.857Z,99983.28
2018-09-04T16:52:25.648Z,99983.77
2018-09-04T16:54:55.397Z,99987.40
2018-09-04T16:57:25.165Z,99983.52
2018-09-04T16:59:55.240Z,99989.50
2018-09-04T17:02:25.045Z,99983.75
2018-09-04T17:04:54.917Z,99995.48
2018-09-04T17:07:24.655Z,99991.88
2018-09-04T17:09:54.348Z,99990.73
2018-09-04T17:12:24.565Z,99987.77
2018-09-04T17:14:54.268Z,99996.71
2018-09-04T17:17:23.968Z,100001.25
2018-09-04T17:19:53.693Z,100000.66
2018-09-04T17:22:23.732Z,100005.81
2018-09-04T17:24:53.656Z,100004.06
2018-09-04T17:27:23.349Z,100012.20
2018-09-04T17:29:53.105Z,100011.30
2018-09-04T17:32:22.856Z,100016.72
2018-09-04T17:34:52.520Z,100014.50
2018-09-04T17:37:22.452Z,100020.44
2018-09-04T17:39:52.336Z,100013.59
2018-09-04T17:42:21.984Z,100023.90
2018-09-04T17:44:51.740Z,100019.34
2018-09-04T17:47:21.423Z,100018.67
2018-09-04T17:49:51.132Z,100017.50
2018-09-04T17:52:20.834Z,100018.50
2018-09-04T17:54:50.547Z,100019.72
2018-09-04T17:57:20.265Z,100021.05
2018-09-04T17:59:49.952Z,100026.41
2018-09-04T18:02:19.653Z,100028.16
2018-09-04T18:04:49.429Z,100034.03
2018-09-04T18:07:19.159Z,100036.87
2018-09-04T18:09:48.827Z,100040.53
2018-09-04T18:12:18.549Z,100044.75
2018-09-04T18:14:48.245Z,100049.03
2018-09-04T18:17:18.037Z,100050.77
2018-09-04T18:19:47.848Z,100050.63
2018-09-04T18:22:17.578Z,100055.57
2018-09-04T18:24:47.272Z,100060.59
2018-09-04T18:27:16.956Z,100059.12
2018-09-04T18:29:46.615Z,100067.89
2018-09-04T18:32:16.333Z,100074.12
2018-09-04T18:34:45.989Z,100074.86
2018-09-04T18:37:15.701Z,100078.04
2018-09-04T18:39:45.433Z,100082.19
2018-09-04T18:42:15.197Z,100081.81
2018-09-04T18:44:44.916Z,100082.77
2018-09-04T18:50:05.805Z,100086.64
2018-09-04T18:52:35.516Z,100087.32
2018-09-04T18:55:05.262Z,100088.57
2018-09-04T18:57:34.970Z,100084.85
2018-09-04T19:00:04.992Z,100089.13
2018-09-04T19:02:34.683Z,100092.31
2018-09-04T19:05:04.373Z,100092.31
2018-09-04T19:07:34.054Z,100091.50
2018-09-04T19:10:03.901Z,100096.25
2018-09-04T19:12:33.658Z,100097.44
2018-09-04T19:15:03.331Z,100096.73
2018-09-04T19:17:33.082Z,100099.04
2018-09-04T19:20:02.769Z,100094.37
2018-09-04T19:22:32.471Z,100099.39
2018-09-04T19:25:02.169Z,100096.84
2018-09-04T19:27:31.922Z,100100.50
2018-09-04T19:30:01.670Z,100094.80
2018-09-04T19:32:31.362Z,100102.80
2018-09-04T19:35:01.025Z,100104.98
2018-09-04T19:37:30.956Z,100106.80
2018-09-04T19:40:00.981Z,100106.20
2018-09-04T19:42:30.644Z,100114.50
2018-09-04T19:45:00.409Z,100118.22
2018-09-04T19:47:30.099Z,100107.95
2018-09-04T19:50:00.048Z,100115.02
2018-09-04T19:52:29.764Z,100111.19
2018-09-04T19:54:59.503Z,100116.47
2018-09-04T19:57:29.187Z,100116.14
2018-09-04T19:59:58.937Z,100122.62
2018-09-04T20:02:28.747Z,100122.63
2018-09-04T20:04:58.457Z,100120.62
2018-09-04T20:07:28.249Z,100124.66
2018-09-04T20:09:57.950Z,100125.75
2018-09-04T20:12:27.689Z,100127.11
2018-09-04T20:15:03.981Z,100123.53
2018-09-04T20:17:33.764Z,100130.41
2018-09-04T20:20:03.541Z,100121.65
2018-09-04T20:22:33.232Z,100127.52
2018-09-04T20:25:02.921Z,100131.23
2018-09-04T20:27:32.631Z,100137.64
2018-09-04T20:30:02.300Z,100134.18
2018-09-04T20:32:32.033Z,100137.67
2018-09-04T20:35:01.717Z,100139.38
2018-09-04T20:37:31.448Z,100143.34
2018-09-04T20:40:01.209Z,100146.40
2018-09-04T20:42:30.888Z,100148.49
2018-09-04T20:45:00.621Z,100147.61
2018-09-04T20:47:30.389Z,100149.59
2018-09-04T20:50:00.065Z,100149.48
2018-09-04T20:52:29.816Z,100152.97
2018-09-04T20:54:59.539Z,100158.86
2018-09-04T20:57:29.424Z,100153.34
2018-09-04T21:00:11.761Z,100148.47
2018-09-04T21:02:52.411Z,100157.23
2018-09-04T21:05:33.209Z,100158.48
2018-09-04T21:09:24.874Z,100157.95
2018-09-04T21:11:54.592Z,100161.44
2018-09-04T21:14:24.616Z,100164.02
2018-09-04T21:16:54.413Z,100161.78
2018-09-04T21:19:24.119Z,100157.88
2018-09-04T21:21:53.804Z,100164.12
2018-09-04T21:24:23.576Z,100166.03
2018-09-04T21:26:53.252Z,100158.75
2018-09-04T21:29:22.926Z,100166.28
2018-09-04T21:31:52.660Z,100164.75
2018-09-04T21:34:22.336Z,100167.38
2018-09-04T21:36:52.044Z,100169.95
2018-09-04T21:39:22.014Z,100175.81
2018-09-04T21:41:51.700Z,100169.34
2018-09-04T21:44:21.426Z,100171.34
2018-09-04T21:46:51.138Z,100168.67
2018-09-04T21:49:20.835Z,100165.22
2018-09-04T21:51:50.497Z,100171.97
2018-09-04T21:54:20.184Z,100172.73
2018-09-04T21:56:49.876Z,100172.65
2018-09-04T21:59:19.600Z,100179.30
2018-09-04T22:01:49.299Z,100179.66
2018-09-04T22:04:19.197Z,100185.45
2018-09-04T22:06:48.866Z,100180.66
2018-09-04T22:09:18.724Z,100185.15
2018-09-04T22:11:48.492Z,100180.25
2018-09-04T22:14:18.211Z,100182.47
2018-09-04T22:16:47.885Z,100184.27
2018-09-04T22:19:17.580Z,100186.93
2018-09-04T22:21:47.292Z,100187.66
2018-09-04T22:24:16.980Z,100188.83
2018-09-04T22:26:46.668Z,100194.48
2018-09-04T22:29:16.361Z,100188.98
2018-09-04T22:31:46.081Z,100189.93
2018-09-04T22:34:16.784Z,100192.98
2018-09-04T22:36:46.492Z,100194.98
2018-09-04T22:39:16.211Z,100194.03
2018-09-04T22:41:45.904Z,100193.02
2018-09-04T22:44:15.609Z,100199.16
2018-09-04T22:46:45.453Z,100207.11
2018-09-04T22:49:15.464Z,100206.17
2018-09-04T22:51:45.168Z,100212.45
2018-09-04T22:54:14.819Z,100212.78
2018-09-04T22:56:44.492Z,100212.34
2018-09-04T22:59:14.237Z,100212.78
2018-09-04T23:01:43.911Z,100216.53
2018-09-04T23:04:13.568Z,100220.37
2018-09-04T23:06:43.261Z,100222.59
2018-09-04T23:09:12.960Z,100215.70
2018-09-04T23:11:42.667Z,100216.73
2018-09-04T23:14:12.408Z,100214.75
2018-09-04T23:16:42.168Z,100216.64
2018-09-04T23:19:11.848Z,100215.20
2018-09-04T23:21:41.531Z,100214.47
2018-09-04T23:24:11.222Z,100214.05
2018-09-04T23:26:40.918Z,100212.99
2018-09-04T23:29:10.596Z,100208.39
2018-09-04T23:31:40.287Z,100211.33
2018-09-04T23:34:09.986Z,100209.96
2018-09-04T23:36:39.756Z,100209.16
2018-09-04T23:39:09.445Z,100208.82
2018-09-04T23:41:39.237Z,100207.47
2018-09-04T23:44:09.205Z,100205.38
2018-09-04T23:46:38.924Z,100201.03
2018-09-04T23:49:08.889Z,100204.77
2018-09-04T23:51:38.581Z,100205.31
2018-09-04T23:54:08.244Z,100212.15
2018-09-04T23:56:37.964Z,100215.78
2018-09-04T23:59:07.632Z,100203.70
